Atlantic - Newfoundland: Past 24 Hour Conditions

 

Twillingate

06:30 PM NDT 24 April 2014
This table is a summary of hourly weather conditions for the past 24 hours.
Date / Time
(NDT)
Wind(knots) Conditions Visibility(km) Pressure(kPa) Air tempC) Relative humidity(%) Dew pointC) Wind Chill
24 April 2014
18:30 NE 18 gust 28 N/A N/A 101.0 -1 90 -2 -8
17:30 ENE 21 gust 28 N/A N/A 101.0 -1 88 -2 -8
16:30 NE 18 gust 26 N/A N/A 101.1 -1 87 -2 -8
15:30 ENE 14 gust 28 N/A N/A 101.1 0 85 -2 -6
14:30 ENE 19 gust 27 N/A N/A 101.1 0 83 -3 -7
13:30 NE 14 gust 27 N/A N/A 101.2 0 82 -3 -6
12:30 ENE 19 gust 27 N/A N/A 101.2 0 82 -3 -7
11:30 NE 19 gust 29 N/A N/A 101.2 0 83 -3 -8
10:30 ENE 20 gust 28 N/A N/A 101.2 -1 83 -3 -8
9:30 ENE 19 gust 27 N/A N/A 101.3 -1 83 -4 -8
8:30 NE 21 gust 29 N/A N/A 101.2 -1 83 -4 -9
7:30 ENE 23 gust 28 N/A N/A 101.2 -1 83 -4 -9
6:30 ENE 27 gust 32 N/A N/A 101.2 -2 85 -4 -10
5:30 ENE 27 N/A N/A 101.2 -2 87 -4 -11
4:30 ENE 25 gust 32 N/A N/A 101.2 -2 88 -4 -11
3:30 ENE 18 gust 26 N/A N/A 101.2 -2 88 -4 -9
2:30 ENE 20 gust 29 N/A N/A 101.2 -2 84 -4 -9
1:30 ENE 21 N/A N/A 101.3 -1 81 -4 -9
0:30 ENE 17 gust 25 N/A N/A 101.3 -1 85 -4 -9
23 April 2014
23:30 ENE 14 gust 21 N/A N/A 101.3 -2 89 -3 -8
22:30 E 14 gust 19 N/A N/A 101.3 -1 82 -4 -8
21:30 ENE 16 gust 22 N/A N/A 101.3 -1 86 -3 -8
20:30 ENE 15 gust 24 N/A N/A 101.3 -1 85 -3 -8
19:30 E 13 gust 25 N/A N/A 101.3 0 82 -3 -6
18:30 E 16 gust 23 N/A N/A 101.3 0 80 -3 *
 
Map of Atlantic - Newfoundland marine weather areas Southwestern Grand Banks - 44138 Banquereau - 44139 Tail of the Bank - 44140 Nickerson Bank - 44251 Northeast Burgeo Bank - 44255 Blanc-Sablon Airport Cap Whittle Chevery Natashquan Airport Heath Point Miscou Island Grand Étang Ingonish Beach North Mountain St.Paul Island J.A. Douglas McCurdy Sydney Airport Charlottetown Airport East Point North Cape Argentia Bonavista Burgeo Cape Race Corner Brook Daniel's Harbour Englee Ferolle Point La Scie Port aux Basques Rocky Harbour Sagona Island St. Anthony Airport St. John's Int'l Airport St. Lawrence Stephenville Airport Twillingate Winterland Wreckhouse Cartwright Airport Mary's Harbour Grates Cove Pool's Island Marticot Island Long Pond Îles de la Madeleine Airport
Legend: buoyBuoy land stationLand Station